sensor_id;sensor_type;location;lat;lon;timestamp;P1;durP1;ratioP1;P2;durP2;ratioP2
8622;SDS011;4349;47.552;8.904;2023-10-08T00:01:50;7.00;;;6.40;;
8622;SDS011;4349;47.552;8.904;2023-10-08T00:04:21;6.60;;;6.10;;
8622;SDS011;4349;47.552;8.904;2023-10-08T00:06:50;7.10;;;6.50;;
8622;SDS011;4349;47.552;8.904;2023-10-08T00:09:18;6.67;;;5.93;;
8622;SDS011;4349;47.552;8.904;2023-10-08T00:11:47;8.33;;;7.03;;
8622;SDS011;4349;47.552;8.904;2023-10-08T00:14:21;7.13;;;6.43;;
8622;SDS011;4349;47.552;8.904;2023-10-08T00:16:48;8.70;;;7.20;;
8622;SDS011;4349;47.552;8.904;2023-10-08T00:19:17;7.90;;;7.10;;
8622;SDS011;4349;47.552;8.904;2023-10-08T00:21:47;8.50;;;7.70;;
8622;SDS011;4349;47.552;8.904;2023-10-08T00:24:16;13.00;;;11.70;;
8622;SDS011;4349;47.552;8.904;2023-10-08T00:26:44;8.77;;;7.97;;
8622;SDS011;4349;47.552;8.904;2023-10-08T00:29:12;11.63;;;9.70;;
8622;SDS011;4349;47.552;8.904;2023-10-08T00:31:45;10.27;;;9.23;;
8622;SDS011;4349;47.552;8.904;2023-10-08T00:34:14;12.70;;;8.57;;
8622;SDS011;4349;47.552;8.904;2023-10-08T00:36:43;9.87;;;7.80;;
8622;SDS011;4349;47.552;8.904;2023-10-08T00:39:12;7.83;;;7.13;;
8622;SDS011;4349;47.552;8.904;2023-10-08T00:41:41;10.27;;;7.23;;
8622;SDS011;4349;47.552;8.904;2023-10-08T00:44:10;8.10;;;7.00;;
8622;SDS011;4349;47.552;8.904;2023-10-08T00:46:44;8.17;;;6.70;;
8622;SDS011;4349;47.552;8.904;2023-10-08T00:49:15;8.30;;;7.30;;
8622;SDS011;4349;47.552;8.904;2023-10-08T00:51:51;9.90;;;6.63;;
8622;SDS011;4349;47.552;8.904;2023-10-08T00:54:44;7.93;;;6.77;;
8622;SDS011;4349;47.552;8.904;2023-10-08T00:57:21;8.37;;;7.40;;
8622;SDS011;4349;47.552;8.904;2023-10-08T00:59:49;8.53;;;7.63;;
8622;SDS011;4349;47.552;8.904;2023-10-08T01:02:21;7.50;;;6.80;;
8622;SDS011;4349;47.552;8.904;2023-10-08T01:04:52;7.57;;;6.87;;
8622;SDS011;4349;47.552;8.904;2023-10-08T01:07:20;6.40;;;5.70;;
8622;SDS011;4349;47.552;8.904;2023-10-08T01:09:50;6.83;;;5.90;;
8622;SDS011;4349;47.552;8.904;2023-10-08T01:12:18;6.23;;;5.43;;
8622;SDS011;4349;47.552;8.904;2023-10-08T01:14:48;6.53;;;5.40;;
8622;SDS011;4349;47.552;8.904;2023-10-08T01:17:16;8.63;;;5.73;;
8622;SDS011;4349;47.552;8.904;2023-10-08T01:19:47;6.10;;;5.50;;
8622;SDS011;4349;47.552;8.904;2023-10-08T01:22:18;6.37;;;5.87;;
8622;SDS011;4349;47.552;8.904;2023-10-08T01:24:46;6.07;;;5.47;;
8622;SDS011;4349;47.552;8.904;2023-10-08T01:27:15;6.30;;;5.67;;
8622;SDS011;4349;47.552;8.904;2023-10-08T01:29:47;6.10;;;5.50;;
8622;SDS011;4349;47.552;8.904;2023-10-08T01:32:16;5.93;;;5.50;;
8622;SDS011;4349;47.552;8.904;2023-10-08T01:34:45;6.13;;;5.53;;
8622;SDS011;4349;47.552;8.904;2023-10-08T01:37:13;6.23;;;5.57;;
8622;SDS011;4349;47.552;8.904;2023-10-08T01:39:44;6.30;;;5.70;;
8622;SDS011;4349;47.552;8.904;2023-10-08T01:42:12;5.93;;;5.30;;
8622;SDS011;4349;47.552;8.904;2023-10-08T01:44:44;7.20;;;6.17;;
8622;SDS011;4349;47.552;8.904;2023-10-08T01:47:15;6.50;;;5.57;;
8622;SDS011;4349;47.552;8.904;2023-10-08T01:49:43;6.83;;;6.23;;
8622;SDS011;4349;47.552;8.904;2023-10-08T01:52:12;6.97;;;6.27;;
8622;SDS011;4349;47.552;8.904;2023-10-08T01:54:46;6.43;;;5.83;;
8622;SDS011;4349;47.552;8.904;2023-10-08T01:57:14;7.10;;;5.97;;
8622;SDS011;4349;47.552;8.904;2023-10-08T01:59:43;8.20;;;5.67;;
8622;SDS011;4349;47.552;8.904;2023-10-08T02:02:11;6.03;;;5.50;;
8622;SDS011;4349;47.552;8.904;2023-10-08T02:04:41;6.67;;;5.87;;
8622;SDS011;4349;47.552;8.904;2023-10-08T02:07:11;6.17;;;5.57;;
8622;SDS011;4349;47.552;8.904;2023-10-08T02:09:39;5.90;;;5.40;;
8622;SDS011;4349;47.552;8.904;2023-10-08T02:12:09;7.57;;;5.57;;
8622;SDS011;4349;47.552;8.904;2023-10-08T02:14:40;7.03;;;5.40;;
8622;SDS011;4349;47.552;8.904;2023-10-08T02:17:08;6.07;;;5.50;;
8622;SDS011;4349;47.552;8.904;2023-10-08T02:19:36;6.67;;;5.77;;
8622;SDS011;4349;47.552;8.904;2023-10-08T02:22:03;6.17;;;5.60;;
8622;SDS011;4349;47.552;8.904;2023-10-08T02:24:36;7.93;;;5.40;;
8622;SDS011;4349;47.552;8.904;2023-10-08T02:27:03;7.10;;;5.83;;
8622;SDS011;4349;47.552;8.904;2023-10-08T02:29:33;6.37;;;5.20;;
8622;SDS011;4349;47.552;8.904;2023-10-08T02:32:00;5.47;;;5.07;;
8622;SDS011;4349;47.552;8.904;2023-10-08T02:34:28;5.40;;;4.90;;
8622;SDS011;4349;47.552;8.904;2023-10-08T02:36:57;5.47;;;4.97;;
8622;SDS011;4349;47.552;8.904;2023-10-08T02:39:25;6.43;;;5.40;;
8622;SDS011;4349;47.552;8.904;2023-10-08T02:41:53;6.27;;;5.67;;
8622;SDS011;4349;47.552;8.904;2023-10-08T02:44:23;5.37;;;4.97;;
8622;SDS011;4349;47.552;8.904;2023-10-08T02:46:52;6.20;;;5.70;;
8622;SDS011;4349;47.552;8.904;2023-10-08T02:49:21;8.30;;;6.00;;
8622;SDS011;4349;47.552;8.904;2023-10-08T02:51:50;6.60;;;6.00;;
8622;SDS011;4349;47.552;8.904;2023-10-08T02:54:18;6.60;;;5.90;;
8622;SDS011;4349;47.552;8.904;2023-10-08T02:56:48;6.30;;;5.70;;
8622;SDS011;4349;47.552;8.904;2023-10-08T02:59:18;7.03;;;5.90;;
8622;SDS011;4349;47.552;8.904;2023-10-08T03:01:46;6.83;;;5.30;;
8622;SDS011;4349;47.552;8.904;2023-10-08T03:04:17;6.63;;;5.20;;
8622;SDS011;4349;47.552;8.904;2023-10-08T03:06:45;8.00;;;4.60;;
8622;SDS011;4349;47.552;8.904;2023-10-08T03:09:17;6.80;;;5.27;;
8622;SDS011;4349;47.552;8.904;2023-10-08T03:11:49;6.43;;;5.10;;
8622;SDS011;4349;47.552;8.904;2023-10-08T03:14:17;5.47;;;4.97;;
8622;SDS011;4349;47.552;8.904;2023-10-08T03:16:50;5.60;;;5.10;;
8622;SDS011;4349;47.552;8.904;2023-10-08T03:19:20;5.23;;;4.73;;
8622;SDS011;4349;47.552;8.904;2023-10-08T03:21:49;5.43;;;5.00;;
8622;SDS011;4349;47.552;8.904;2023-10-08T03:24:17;6.03;;;5.00;;
8622;SDS011;4349;47.552;8.904;2023-10-08T03:26:58;5.40;;;5.00;;
8622;SDS011;4349;47.552;8.904;2023-10-08T03:29:33;5.93;;;4.70;;
8622;SDS011;4349;47.552;8.904;2023-10-08T03:32:08;5.30;;;4.90;;
8622;SDS011;4349;47.552;8.904;2023-10-08T03:34:47;5.73;;;5.13;;
8622;SDS011;4349;47.552;8.904;2023-10-08T03:37:16;6.60;;;5.80;;
8622;SDS011;4349;47.552;8.904;2023-10-08T03:39:47;6.13;;;5.63;;
8622;SDS011;4349;47.552;8.904;2023-10-08T03:42:33;5.80;;;5.30;;
8622;SDS011;4349;47.552;8.904;2023-10-08T03:45:06;6.20;;;5.70;;
8622;SDS011;4349;47.552;8.904;2023-10-08T03:47:39;7.47;;;6.20;;
8622;SDS011;4349;47.552;8.904;2023-10-08T03:50:14;6.60;;;6.00;;
8622;SDS011;4349;47.552;8.904;2023-10-08T03:52:44;6.73;;;6.13;;
8622;SDS011;4349;47.552;8.904;2023-10-08T03:55:13;6.23;;;5.63;;
8622;SDS011;4349;47.552;8.904;2023-10-08T03:57:48;6.20;;;5.57;;
8622;SDS011;4349;47.552;8.904;2023-10-08T04:00:23;8.13;;;6.17;;
8622;SDS011;4349;47.552;8.904;2023-10-08T04:02:58;6.17;;;5.67;;
8622;SDS011;4349;47.552;8.904;2023-10-08T04:05:36;6.70;;;5.50;;
8622;SDS011;4349;47.552;8.904;2023-10-08T04:08:26;7.00;;;5.83;;
8622;SDS011;4349;47.552;8.904;2023-10-08T04:11:09;6.77;;;5.70;;
8622;SDS011;4349;47.552;8.904;2023-10-08T04:13:57;5.53;;;5.03;;
8622;SDS011;4349;47.552;8.904;2023-10-08T04:16:26;6.67;;;5.23;;
8622;SDS011;4349;47.552;8.904;2023-10-08T04:18:54;5.57;;;5.17;;
8622;SDS011;4349;47.552;8.904;2023-10-08T04:21:23;6.10;;;5.30;;
8622;SDS011;4349;47.552;8.904;2023-10-08T04:23:53;6.67;;;5.07;;
8622;SDS011;4349;47.552;8.904;2023-10-08T04:26:24;6.20;;;5.60;;
8622;SDS011;4349;47.552;8.904;2023-10-08T04:28:52;5.70;;;5.20;;
8622;SDS011;4349;47.552;8.904;2023-10-08T04:31:24;5.20;;;4.80;;
8622;SDS011;4349;47.552;8.904;2023-10-08T04:33:55;5.60;;;5.10;;
8622;SDS011;4349;47.552;8.904;2023-10-08T04:36:28;5.20;;;4.70;;
8622;SDS011;4349;47.552;8.904;2023-10-08T04:38:55;7.07;;;5.10;;
8622;SDS011;4349;47.552;8.904;2023-10-08T04:41:28;5.60;;;5.03;;
8622;SDS011;4349;47.552;8.904;2023-10-08T04:43:56;6.33;;;5.13;;
8622;SDS011;4349;47.552;8.904;2023-10-08T04:46:23;4.97;;;4.57;;
8622;SDS011;4349;47.552;8.904;2023-10-08T04:49:07;5.43;;;5.00;;
8622;SDS011;4349;47.552;8.904;2023-10-08T04:51:46;7.27;;;5.30;;
8622;SDS011;4349;47.552;8.904;2023-10-08T04:54:15;7.13;;;5.70;;
8622;SDS011;4349;47.552;8.904;2023-10-08T04:56:43;6.43;;;5.83;;
8622;SDS011;4349;47.552;8.904;2023-10-08T04:59:11;7.17;;;6.00;;
8622;SDS011;4349;47.552;8.904;2023-10-08T05:01:39;7.20;;;5.97;;
8622;SDS011;4349;47.552;8.904;2023-10-08T05:04:14;9.27;;;6.03;;
8622;SDS011;4349;47.552;8.904;2023-10-08T05:06:58;6.73;;;6.00;;
8622;SDS011;4349;47.552;8.904;2023-10-08T05:09:44;6.20;;;5.60;;
8622;SDS011;4349;47.552;8.904;2023-10-08T05:12:19;6.33;;;5.83;;
8622;SDS011;4349;47.552;8.904;2023-10-08T05:15:01;6.83;;;5.73;;
8622;SDS011;4349;47.552;8.904;2023-10-08T05:17:43;6.60;;;6.00;;
8622;SDS011;4349;47.552;8.904;2023-10-08T05:20:24;6.90;;;6.30;;
8622;SDS011;4349;47.552;8.904;2023-10-08T05:23:12;7.47;;;6.87;;
8622;SDS011;4349;47.552;8.904;2023-10-08T05:26:10;6.30;;;5.80;;
8622;SDS011;4349;47.552;8.904;2023-10-08T05:28:46;7.00;;;6.40;;
8622;SDS011;4349;47.552;8.904;2023-10-08T05:31:27;7.40;;;6.70;;
8622;SDS011;4349;47.552;8.904;2023-10-08T05:34:13;7.33;;;6.63;;
8622;SDS011;4349;47.552;8.904;2023-10-08T05:36:59;7.23;;;6.17;;
8622;SDS011;4349;47.552;8.904;2023-10-08T05:40:00;6.93;;;6.33;;
8622;SDS011;4349;47.552;8.904;2023-10-08T05:42:47;7.60;;;6.90;;
8622;SDS011;4349;47.552;8.904;2023-10-08T05:45:16;7.30;;;6.63;;
8622;SDS011;4349;47.552;8.904;2023-10-08T05:47:59;8.03;;;6.90;;
8622;SDS011;4349;47.552;8.904;2023-10-08T05:50:39;8.73;;;7.67;;
8622;SDS011;4349;47.552;8.904;2023-10-08T05:53:09;8.77;;;7.63;;
8622;SDS011;4349;47.552;8.904;2023-10-08T05:55:47;7.60;;;6.80;;
8622;SDS011;4349;47.552;8.904;2023-10-08T05:58:27;12.73;;;6.50;;
8622;SDS011;4349;47.552;8.904;2023-10-08T06:01:11;6.73;;;6.13;;
8622;SDS011;4349;47.552;8.904;2023-10-08T06:03:55;6.23;;;5.50;;
8622;SDS011;4349;47.552;8.904;2023-10-08T06:06:27;6.90;;;6.07;;
8622;SDS011;4349;47.552;8.904;2023-10-08T06:09:13;6.17;;;5.67;;
8622;SDS011;4349;47.552;8.904;2023-10-08T06:11:50;7.27;;;5.80;;
8622;SDS011;4349;47.552;8.904;2023-10-08T06:14:34;6.60;;;5.83;;
8622;SDS011;4349;47.552;8.904;2023-10-08T06:17:19;6.00;;;5.50;;
8622;SDS011;4349;47.552;8.904;2023-10-08T06:20:24;5.97;;;5.47;;
8622;SDS011;4349;47.552;8.904;2023-10-08T06:22:53;6.47;;;5.73;;
8622;SDS011;4349;47.552;8.904;2023-10-08T06:25:27;6.70;;;5.50;;
8622;SDS011;4349;47.552;8.904;2023-10-08T06:27:57;6.83;;;6.20;;
8622;SDS011;4349;47.552;8.904;2023-10-08T06:30:25;6.90;;;6.30;;
8622;SDS011;4349;47.552;8.904;2023-10-08T06:32:56;6.20;;;5.70;;
8622;SDS011;4349;47.552;8.904;2023-10-08T06:35:23;6.17;;;5.60;;
8622;SDS011;4349;47.552;8.904;2023-10-08T06:37:54;6.30;;;5.70;;
8622;SDS011;4349;47.552;8.904;2023-10-08T06:40:25;7.67;;;6.10;;
8622;SDS011;4349;47.552;8.904;2023-10-08T06:43:10;6.47;;;5.87;;
8622;SDS011;4349;47.552;8.904;2023-10-08T06:45:48;9.53;;;5.57;;
8622;SDS011;4349;47.552;8.904;2023-10-08T06:48:19;8.33;;;5.93;;
8622;SDS011;4349;47.552;8.904;2023-10-08T06:50:48;6.50;;;5.43;;
8622;SDS011;4349;47.552;8.904;2023-10-08T06:53:15;6.33;;;5.73;;
8622;SDS011;4349;47.552;8.904;2023-10-08T06:55:44;6.70;;;6.10;;
8622;SDS011;4349;47.552;8.904;2023-10-08T06:58:15;6.63;;;6.03;;
8622;SDS011;4349;47.552;8.904;2023-10-08T07:00:44;6.40;;;5.80;;
8622;SDS011;4349;47.552;8.904;2023-10-08T07:03:16;6.97;;;6.30;;
8622;SDS011;4349;47.552;8.904;2023-10-08T07:05:45;7.73;;;6.00;;
8622;SDS011;4349;47.552;8.904;2023-10-08T07:08:21;6.73;;;6.13;;
8622;SDS011;4349;47.552;8.904;2023-10-08T07:10:49;7.77;;;6.33;;
8622;SDS011;4349;47.552;8.904;2023-10-08T07:13:19;6.33;;;5.83;;
8622;SDS011;4349;47.552;8.904;2023-10-08T07:15:48;8.67;;;6.60;;
8622;SDS011;4349;47.552;8.904;2023-10-08T07:18:16;7.97;;;6.27;;
8622;SDS011;4349;47.552;8.904;2023-10-08T07:20:51;7.03;;;6.33;;
8622;SDS011;4349;47.552;8.904;2023-10-08T07:23:21;6.97;;;6.27;;
8622;SDS011;4349;47.552;8.904;2023-10-08T07:25:53;7.67;;;6.87;;
8622;SDS011;4349;47.552;8.904;2023-10-08T07:28:26;9.23;;;6.70;;
8622;SDS011;4349;47.552;8.904;2023-10-08T07:30:53;8.87;;;7.30;;
8622;SDS011;4349;47.552;8.904;2023-10-08T07:33:21;11.93;;;7.67;;
8622;SDS011;4349;47.552;8.904;2023-10-08T07:35:51;8.40;;;7.20;;
8622;SDS011;4349;47.552;8.904;2023-10-08T07:38:29;9.17;;;7.43;;
8622;SDS011;4349;47.552;8.904;2023-10-08T07:40:56;9.13;;;7.43;;
8622;SDS011;4349;47.552;8.904;2023-10-08T07:43:25;10.80;;;8.00;;
8622;SDS011;4349;47.552;8.904;2023-10-08T07:45:55;11.73;;;7.27;;
8622;SDS011;4349;47.552;8.904;2023-10-08T07:48:22;10.57;;;7.97;;
8622;SDS011;4349;47.552;8.904;2023-10-08T07:50:56;12.47;;;8.47;;
8622;SDS011;4349;47.552;8.904;2023-10-08T07:53:24;11.20;;;7.93;;
8622;SDS011;4349;47.552;8.904;2023-10-08T07:55:52;12.30;;;7.97;;
8622;SDS011;4349;47.552;8.904;2023-10-08T07:58:19;11.37;;;8.10;;
8622;SDS011;4349;47.552;8.904;2023-10-08T08:00:48;9.33;;;7.97;;
8622;SDS011;4349;47.552;8.904;2023-10-08T08:03:21;10.87;;;8.20;;
8622;SDS011;4349;47.552;8.904;2023-10-08T08:05:49;8.53;;;7.73;;
8622;SDS011;4349;47.552;8.904;2023-10-08T08:08:20;13.13;;;8.13;;
8622;SDS011;4349;47.552;8.904;2023-10-08T08:10:49;10.73;;;7.47;;
8622;SDS011;4349;47.552;8.904;2023-10-08T08:13:24;9.37;;;7.43;;
8622;SDS011;4349;47.552;8.904;2023-10-08T08:15:58;8.27;;;6.80;;
8622;SDS011;4349;47.552;8.904;2023-10-08T08:18:36;7.10;;;6.43;;
8622;SDS011;4349;47.552;8.904;2023-10-08T08:21:08;7.70;;;6.57;;
8622;SDS011;4349;47.552;8.904;2023-10-08T08:23:40;7.63;;;6.40;;
8622;SDS011;4349;47.552;8.904;2023-10-08T08:26:14;9.03;;;6.87;;
8622;SDS011;4349;47.552;8.904;2023-10-08T08:28:53;8.47;;;6.37;;
8622;SDS011;4349;47.552;8.904;2023-10-08T08:31:24;7.40;;;6.30;;
8622;SDS011;4349;47.552;8.904;2023-10-08T08:33:52;10.13;;;6.90;;
8622;SDS011;4349;47.552;8.904;2023-10-08T08:36:19;10.37;;;7.03;;
8622;SDS011;4349;47.552;8.904;2023-10-08T08:38:47;8.90;;;7.07;;
8622;SDS011;4349;47.552;8.904;2023-10-08T08:41:15;9.90;;;8.00;;
8622;SDS011;4349;47.552;8.904;2023-10-08T08:43:47;7.33;;;6.27;;
8622;SDS011;4349;47.552;8.904;2023-10-08T08:46:15;8.47;;;6.50;;
8622;SDS011;4349;47.552;8.904;2023-10-08T08:48:44;9.90;;;6.97;;
8622;SDS011;4349;47.552;8.904;2023-10-08T08:51:12;11.13;;;7.67;;
8622;SDS011;4349;47.552;8.904;2023-10-08T08:53:39;10.07;;;6.47;;
8622;SDS011;4349;47.552;8.904;2023-10-08T08:56:08;9.07;;;6.60;;
8622;SDS011;4349;47.552;8.904;2023-10-08T08:58:36;10.97;;;6.60;;
8622;SDS011;4349;47.552;8.904;2023-10-08T09:01:06;8.00;;;6.07;;
8622;SDS011;4349;47.552;8.904;2023-10-08T09:03:34;8.07;;;6.10;;
8622;SDS011;4349;47.552;8.904;2023-10-08T09:06:05;7.97;;;5.80;;
8622;SDS011;4349;47.552;8.904;2023-10-08T09:08:33;12.27;;;6.70;;
8622;SDS011;4349;47.552;8.904;2023-10-08T09:11:01;8.97;;;6.97;;
8622;SDS011;4349;47.552;8.904;2023-10-08T09:13:30;10.40;;;6.70;;
8622;SDS011;4349;47.552;8.904;2023-10-08T09:16:02;15.20;;;7.23;;
8622;SDS011;4349;47.552;8.904;2023-10-08T09:18:30;9.90;;;7.10;;
8622;SDS011;4349;47.552;8.904;2023-10-08T09:21:08;9.97;;;6.60;;
8622;SDS011;4349;47.552;8.904;2023-10-08T09:23:41;9.63;;;6.90;;
8622;SDS011;4349;47.552;8.904;2023-10-08T09:26:13;9.27;;;6.10;;
8622;SDS011;4349;47.552;8.904;2023-10-08T09:28:44;12.20;;;7.10;;
8622;SDS011;4349;47.552;8.904;2023-10-08T09:31:13;8.60;;;5.83;;
8622;SDS011;4349;47.552;8.904;2023-10-08T09:33:41;9.50;;;6.13;;
8622;SDS011;4349;47.552;8.904;2023-10-08T09:36:10;9.27;;;6.30;;
8622;SDS011;4349;47.552;8.904;2023-10-08T09:38:45;9.93;;;5.83;;
8622;SDS011;4349;47.552;8.904;2023-10-08T09:41:14;5.97;;;5.37;;
8622;SDS011;4349;47.552;8.904;2023-10-08T09:43:42;10.20;;;5.73;;
8622;SDS011;4349;47.552;8.904;2023-10-08T09:46:13;8.63;;;5.20;;
8622;SDS011;4349;47.552;8.904;2023-10-08T09:48:42;6.70;;;5.43;;
8622;SDS011;4349;47.552;8.904;2023-10-08T09:51:13;8.27;;;5.10;;
8622;SDS011;4349;47.552;8.904;2023-10-08T09:53:43;12.60;;;6.20;;
8622;SDS011;4349;47.552;8.904;2023-10-08T09:56:14;7.97;;;4.97;;
8622;SDS011;4349;47.552;8.904;2023-10-08T09:58:42;7.70;;;5.40;;
8622;SDS011;4349;47.552;8.904;2023-10-08T10:01:10;6.87;;;5.70;;
8622;SDS011;4349;47.552;8.904;2023-10-08T10:03:37;8.03;;;5.87;;
8622;SDS011;4349;47.552;8.904;2023-10-08T10:06:11;11.07;;;6.53;;
8622;SDS011;4349;47.552;8.904;2023-10-08T10:08:42;8.77;;;6.07;;
8622;SDS011;4349;47.552;8.904;2023-10-08T10:11:10;12.20;;;6.30;;
8622;SDS011;4349;47.552;8.904;2023-10-08T10:13:41;10.03;;;5.90;;
8622;SDS011;4349;47.552;8.904;2023-10-08T10:16:10;7.37;;;5.70;;
8622;SDS011;4349;47.552;8.904;2023-10-08T10:18:39;7.70;;;6.33;;
8622;SDS011;4349;47.552;8.904;2023-10-08T10:21:30;7.63;;;5.80;;
8622;SDS011;4349;47.552;8.904;2023-10-08T10:24:00;9.07;;;5.93;;
8622;SDS011;4349;47.552;8.904;2023-10-08T10:26:29;10.13;;;6.10;;
8622;SDS011;4349;47.552;8.904;2023-10-08T10:31:46;7.63;;;5.67;;
8622;SDS011;4349;47.552;8.904;2023-10-08T10:34:14;7.63;;;5.60;;
8622;SDS011;4349;47.552;8.904;2023-10-08T10:36:43;7.53;;;5.23;;
8622;SDS011;4349;47.552;8.904;2023-10-08T10:39:15;10.87;;;5.83;;
8622;SDS011;4349;47.552;8.904;2023-10-08T10:41:43;7.47;;;5.47;;
8622;SDS011;4349;47.552;8.904;2023-10-08T10:44:11;12.13;;;5.50;;
8622;SDS011;4349;47.552;8.904;2023-10-08T10:46:40;9.27;;;5.80;;
8622;SDS011;4349;47.552;8.904;2023-10-08T10:49:09;9.67;;;5.50;;
8622;SDS011;4349;47.552;8.904;2023-10-08T10:51:45;6.77;;;5.43;;
8622;SDS011;4349;47.552;8.904;2023-10-08T10:54:16;6.70;;;4.80;;
8622;SDS011;4349;47.552;8.904;2023-10-08T10:56:50;9.27;;;5.23;;
8622;SDS011;4349;47.552;8.904;2023-10-08T10:59:29;7.87;;;5.20;;
8622;SDS011;4349;47.552;8.904;2023-10-08T11:02:06;8.60;;;5.97;;
8622;SDS011;4349;47.552;8.904;2023-10-08T11:04:33;7.37;;;5.57;;
8622;SDS011;4349;47.552;8.904;2023-10-08T11:07:14;8.00;;;5.13;;
8622;SDS011;4349;47.552;8.904;2023-10-08T11:09:43;8.60;;;5.17;;
8622;SDS011;4349;47.552;8.904;2023-10-08T11:12:13;8.20;;;4.93;;
8622;SDS011;4349;47.552;8.904;2023-10-08T11:14:46;7.43;;;5.07;;
8622;SDS011;4349;47.552;8.904;2023-10-08T11:17:18;8.80;;;5.47;;
8622;SDS011;4349;47.552;8.904;2023-10-08T11:19:49;13.10;;;5.47;;
8622;SDS011;4349;47.552;8.904;2023-10-08T11:22:17;9.87;;;5.10;;
8622;SDS011;4349;47.552;8.904;2023-10-08T11:24:50;5.33;;;4.63;;
8622;SDS011;4349;47.552;8.904;2023-10-08T11:27:20;10.13;;;5.40;;
8622;SDS011;4349;47.552;8.904;2023-10-08T11:29:56;11.07;;;5.83;;
8622;SDS011;4349;47.552;8.904;2023-10-08T11:32:24;6.47;;;4.67;;
8622;SDS011;4349;47.552;8.904;2023-10-08T11:34:56;9.07;;;5.03;;
8622;SDS011;4349;47.552;8.904;2023-10-08T11:37:26;9.37;;;4.80;;
8622;SDS011;4349;47.552;8.904;2023-10-08T11:39:55;10.90;;;5.33;;
8622;SDS011;4349;47.552;8.904;2023-10-08T11:42:24;8.10;;;4.87;;
8622;SDS011;4349;47.552;8.904;2023-10-08T11:45:06;5.73;;;4.63;;
8622;SDS011;4349;47.552;8.904;2023-10-08T11:47:50;10.47;;;5.10;;
8622;SDS011;4349;47.552;8.904;2023-10-08T11:50:25;8.97;;;5.00;;
8622;SDS011;4349;47.552;8.904;2023-10-08T11:52:58;7.13;;;4.80;;
8622;SDS011;4349;47.552;8.904;2023-10-08T11:55:30;8.43;;;4.80;;
8622;SDS011;4349;47.552;8.904;2023-10-08T11:58:01;8.20;;;4.40;;
8622;SDS011;4349;47.552;8.904;2023-10-08T12:00:36;10.50;;;5.13;;
8622;SDS011;4349;47.552;8.904;2023-10-08T12:03:10;9.43;;;5.10;;
8622;SDS011;4349;47.552;8.904;2023-10-08T12:05:38;6.97;;;4.90;;
8622;SDS011;4349;47.552;8.904;2023-10-08T12:08:13;10.00;;;5.13;;
8622;SDS011;4349;47.552;8.904;2023-10-08T12:10:44;10.53;;;5.87;;
8622;SDS011;4349;47.552;8.904;2023-10-08T12:13:12;8.03;;;4.90;;
8622;SDS011;4349;47.552;8.904;2023-10-08T12:15:40;6.60;;;4.40;;
8622;SDS011;4349;47.552;8.904;2023-10-08T12:18:10;7.67;;;4.53;;
8622;SDS011;4349;47.552;8.904;2023-10-08T12:20:42;8.63;;;4.67;;
8622;SDS011;4349;47.552;8.904;2023-10-08T12:23:13;10.70;;;4.73;;
8622;SDS011;4349;47.552;8.904;2023-10-08T12:25:53;5.37;;;3.90;;
8622;SDS011;4349;47.552;8.904;2023-10-08T12:28:22;8.37;;;4.47;;
8622;SDS011;4349;47.552;8.904;2023-10-08T12:30:51;14.47;;;4.60;;
8622;SDS011;4349;47.552;8.904;2023-10-08T12:33:19;7.37;;;3.90;;
8622;SDS011;4349;47.552;8.904;2023-10-08T12:35:46;6.17;;;4.70;;
8622;SDS011;4349;47.552;8.904;2023-10-08T12:38:15;6.83;;;4.00;;
8622;SDS011;4349;47.552;8.904;2023-10-08T12:40:46;9.27;;;4.43;;
8622;SDS011;4349;47.552;8.904;2023-10-08T12:43:22;6.57;;;3.73;;
8622;SDS011;4349;47.552;8.904;2023-10-08T12:45:54;9.00;;;4.27;;
8622;SDS011;4349;47.552;8.904;2023-10-08T12:48:26;6.63;;;4.43;;
8622;SDS011;4349;47.552;8.904;2023-10-08T12:50:54;8.60;;;4.40;;
8622;SDS011;4349;47.552;8.904;2023-10-08T12:53:24;9.13;;;4.60;;
8622;SDS011;4349;47.552;8.904;2023-10-08T12:56:00;9.30;;;4.70;;
8622;SDS011;4349;47.552;8.904;2023-10-08T12:58:34;11.03;;;4.70;;
8622;SDS011;4349;47.552;8.904;2023-10-08T13:01:07;14.13;;;4.70;;
8622;SDS011;4349;47.552;8.904;2023-10-08T13:03:36;11.77;;;4.93;;
8622;SDS011;4349;47.552;8.904;2023-10-08T13:06:08;9.13;;;4.23;;
8622;SDS011;4349;47.552;8.904;2023-10-08T13:08:41;14.20;;;4.77;;
8622;SDS011;4349;47.552;8.904;2023-10-08T13:11:08;11.43;;;4.57;;
8622;SDS011;4349;47.552;8.904;2023-10-08T13:13:38;7.15;;;4.00;;
8622;SDS011;4349;47.552;8.904;2023-10-08T13:16:06;10.30;;;4.13;;
8622;SDS011;4349;47.552;8.904;2023-10-08T13:18:34;12.70;;;4.00;;
8622;SDS011;4349;47.552;8.904;2023-10-08T13:21:03;10.10;;;4.32;;
8622;SDS011;4349;47.552;8.904;2023-10-08T13:23:33;11.85;;;4.57;;
8622;SDS011;4349;47.552;8.904;2023-10-08T13:26:02;6.97;;;4.13;;
8622;SDS011;4349;47.552;8.904;2023-10-08T13:28:33;10.68;;;4.85;;
8622;SDS011;4349;47.552;8.904;2023-10-08T13:31:02;12.60;;;4.28;;
8622;SDS011;4349;47.552;8.904;2023-10-08T13:33:36;12.48;;;4.63;;
8622;SDS011;4349;47.552;8.904;2023-10-08T13:36:06;12.52;;;4.65;;
8622;SDS011;4349;47.552;8.904;2023-10-08T13:38:44;14.45;;;4.00;;
8622;SDS011;4349;47.552;8.904;2023-10-08T13:41:13;14.80;;;4.95;;
8622;SDS011;4349;47.552;8.904;2023-10-08T13:43:45;11.75;;;4.50;;
8622;SDS011;4349;47.552;8.904;2023-10-08T13:46:15;14.70;;;5.70;;
8622;SDS011;4349;47.552;8.904;2023-10-08T13:48:44;12.25;;;5.25;;
8622;SDS011;4349;47.552;8.904;2023-10-08T13:51:15;13.20;;;4.53;;
8622;SDS011;4349;47.552;8.904;2023-10-08T13:53:50;15.32;;;4.53;;
8622;SDS011;4349;47.552;8.904;2023-10-08T13:56:19;13.27;;;4.75;;
8622;SDS011;4349;47.552;8.904;2023-10-08T13:58:51;10.75;;;4.65;;
8622;SDS011;4349;47.552;8.904;2023-10-08T14:01:23;13.38;;;5.03;;
8622;SDS011;4349;47.552;8.904;2023-10-08T14:03:52;12.48;;;4.45;;
8622;SDS011;4349;47.552;8.904;2023-10-08T14:06:20;12.55;;;5.25;;
8622;SDS011;4349;47.552;8.904;2023-10-08T14:08:48;15.13;;;4.15;;
8622;SDS011;4349;47.552;8.904;2023-10-08T14:11:18;12.50;;;4.40;;
8622;SDS011;4349;47.552;8.904;2023-10-08T14:13:50;10.80;;;4.70;;
8622;SDS011;4349;47.552;8.904;2023-10-08T14:16:17;11.57;;;4.63;;
8622;SDS011;4349;47.552;8.904;2023-10-08T14:18:52;13.27;;;4.75;;
8622;SDS011;4349;47.552;8.904;2023-10-08T14:21:21;10.88;;;4.82;;
8622;SDS011;4349;47.552;8.904;2023-10-08T14:23:50;14.93;;;4.72;;
8622;SDS011;4349;47.552;8.904;2023-10-08T14:26:19;11.05;;;4.93;;
8622;SDS011;4349;47.552;8.904;2023-10-08T14:28:49;12.73;;;4.68;;
8622;SDS011;4349;47.552;8.904;2023-10-08T14:31:19;13.73;;;4.57;;
8622;SDS011;4349;47.552;8.904;2023-10-08T14:33:49;14.10;;;5.43;;
8622;SDS011;4349;47.552;8.904;2023-10-08T14:36:32;12.40;;;5.05;;
8622;SDS011;4349;47.552;8.904;2023-10-08T14:39:17;12.90;;;5.22;;
8622;SDS011;4349;47.552;8.904;2023-10-08T14:42:02;13.38;;;3.85;;
8622;SDS011;4349;47.552;8.904;2023-10-08T14:44:47;9.40;;;4.80;;
8622;SDS011;4349;47.552;8.904;2023-10-08T14:47:17;13.65;;;4.95;;
8622;SDS011;4349;47.552;8.904;2023-10-08T14:49:44;8.48;;;4.28;;
8622;SDS011;4349;47.552;8.904;2023-10-08T14:52:13;14.63;;;4.95;;
8622;SDS011;4349;47.552;8.904;2023-10-08T14:54:41;12.70;;;4.60;;
8622;SDS011;4349;47.552;8.904;2023-10-08T14:57:09;12.48;;;4.50;;
8622;SDS011;4349;47.552;8.904;2023-10-08T14:59:38;16.45;;;5.00;;
8622;SDS011;4349;47.552;8.904;2023-10-08T15:02:06;9.27;;;4.35;;
8622;SDS011;4349;47.552;8.904;2023-10-08T15:04:35;12.52;;;4.55;;
8622;SDS011;4349;47.552;8.904;2023-10-08T15:07:05;11.02;;;4.63;;
8622;SDS011;4349;47.552;8.904;2023-10-08T15:09:36;8.88;;;4.15;;
8622;SDS011;4349;47.552;8.904;2023-10-08T15:12:04;10.95;;;4.25;;
8622;SDS011;4349;47.552;8.904;2023-10-08T15:14:32;10.93;;;3.88;;
8622;SDS011;4349;47.552;8.904;2023-10-08T15:17:01;10.48;;;4.50;;
8622;SDS011;4349;47.552;8.904;2023-10-08T15:19:28;12.75;;;4.82;;
8622;SDS011;4349;47.552;8.904;2023-10-08T15:21:57;11.65;;;4.13;;
8622;SDS011;4349;47.552;8.904;2023-10-08T15:24:25;10.43;;;4.35;;
8622;SDS011;4349;47.552;8.904;2023-10-08T15:26:54;10.20;;;4.50;;
8622;SDS011;4349;47.552;8.904;2023-10-08T15:29:22;9.13;;;3.97;;
8622;SDS011;4349;47.552;8.904;2023-10-08T15:31:52;3.75;;;2.67;;
8622;SDS011;4349;47.552;8.904;2023-10-08T15:34:20;8.70;;;4.00;;
8622;SDS011;4349;47.552;8.904;2023-10-08T15:37:02;3.85;;;2.42;;
8622;SDS011;4349;47.552;8.904;2023-10-08T15:39:30;7.38;;;2.63;;
8622;SDS011;4349;47.552;8.904;2023-10-08T15:41:58;10.65;;;3.78;;
8622;SDS011;4349;47.552;8.904;2023-10-08T15:44:26;12.73;;;4.80;;